NDF1084 ESSV-ESSB
Flight info
| Callsign | NDF1084 |
|---|---|
| Flight time | N/A |
| Altitude | 2800 |
| Route | DCT |
| Aircraft | PA24/L-SDGRY/S |
Departure
| Time | 2026-04-30 17:41 |
|---|---|
| Airport | Visby Airport (ESSV) |
Arrival
| Time | N/A |
|---|---|
| Airport | Stockholm-Bromma Airport (ESSB) |
| Time | Latitude | Longitude | Altitude | Speed | Heading |
|---|---|---|---|---|---|
| 2026-04-30 17:39 | 57.72860 | 18.55891 | 2794 ft | 143 kts | 44° |
| 2026-04-30 17:41 | 57.78037 | 18.67194 | 2802 ft | 143 kts | 43° |
| 2026-04-30 17:42 | 57.79319 | 18.70013 | 2805 ft | 143 kts | 44° |
| 2026-04-30 17:42 | 57.81030 | 18.73804 | 2798 ft | 143 kts | 44° |
| 2026-04-30 17:43 | 57.82526 | 18.77110 | 2798 ft | 143 kts | 45° |
| 2026-04-30 17:44 | 57.84235 | 18.80910 | 2799 ft | 143 kts | 44° |
| 2026-04-30 17:44 | 57.86168 | 18.85179 | 2807 ft | 143 kts | 44° |
| 2026-04-30 17:46 | 57.89587 | 18.91684 | 2810 ft | 139 kts | 7° |
| 2026-04-30 17:47 | 57.93311 | 18.93027 | 2806 ft | 135 kts | 6° |
| 2026-04-30 17:48 | 57.96551 | 18.89820 | 2778 ft | 133 kts | 330° |
| 2026-04-30 17:48 | 57.98901 | 18.87225 | 2802 ft | 130 kts | 330° |
| 2026-04-30 17:49 | 58.02025 | 18.83816 | 2801 ft | 130 kts | 330° |
| 2026-04-30 17:50 | 58.05152 | 18.80372 | 2806 ft | 130 kts | 330° |
| 2026-04-30 17:51 | 58.07503 | 18.77776 | 2812 ft | 130 kts | 331° |
| 2026-04-30 17:52 | 58.09849 | 18.75241 | 2802 ft | 129 kts | 330° |
| 2026-04-30 17:53 | 58.13753 | 18.70979 | 2804 ft | 130 kts | 330° |
| 2026-04-30 17:54 | 58.16871 | 18.67547 | 2805 ft | 130 kts | 330° |
| 2026-04-30 17:55 | 58.19996 | 18.64098 | 2801 ft | 130 kts | 330° |
| 2026-04-30 17:56 | 58.23120 | 18.60653 | 2801 ft | 130 kts | 330° |
| 2026-04-30 17:57 | 58.25452 | 18.58018 | 2803 ft | 130 kts | 331° |